KEAN/EAN METAR and TAF weather

Enter ICAO airport designator
Station Type Date Time Source
KEAN METAR 2018/04/19 13:15 UTC NOAA

KEAN 191315Z AUTO 10005KT 10SM CLR 00/M05 A3027 RMK AO2 T00021053


Station Type Date Time Source
KEAN Decoded METAR 2018/04/19 13:15 UTC NOAA

Station name not available
Apr 19, 2018 - 09:15 AM EDT / 2018.04.19 1315 UTC
Wind: from the E (100 degrees) at 6 MPH (5 KT):0
Visibility: 10 mile(s):0
Sky conditions: clear
Temperature: 32.4 F (0.2 C)
Windchill: 26 F (-3 C):1
Dew Point: 22.5 F (-5.3 C)
Relative Humidity: 66%
Pressure (altimeter): 30.27 in. Hg (1025 hPa)
ob: KEAN 191315Z AUTO 10005KT 10SM CLR 00/M05 A3027 RMK AO2 T00021053
cycle: 13

Station Type Date Time Source
KEAN TAF UTC NOAA

Error!


Example: see airport list